createdAt,value
2017-12-27T07:17:48.914Z,28.83
2017-12-27T07:20:17.109Z,29.63
2017-12-27T07:22:45.983Z,32.03
2017-12-27T07:25:14.085Z,34.77
2017-12-27T07:27:42.626Z,35.30
2017-12-27T07:30:10.576Z,28.90
2017-12-27T07:32:39.212Z,35.07
2017-12-27T07:35:07.094Z,35.13
2017-12-27T07:37:34.964Z,34.50
2017-12-27T07:40:02.890Z,35.20
2017-12-27T07:42:30.843Z,34.73
2017-12-27T07:44:58.735Z,33.67
2017-12-27T07:47:26.644Z,34.37
2017-12-27T07:49:54.531Z,34.83
2017-12-27T07:52:22.586Z,30.47
2017-12-27T07:54:50.662Z,32.03
2017-12-27T07:57:18.564Z,29.50
2017-12-27T07:59:46.458Z,31.87
2017-12-27T08:02:14.852Z,30.73
2017-12-27T08:04:43.692Z,29.93
2017-12-27T08:07:11.644Z,30.23
2017-12-27T08:09:39.592Z,29.57
2017-12-27T08:12:07.434Z,28.60
2017-12-27T08:14:35.928Z,28.70
2017-12-27T08:17:04.173Z,26.47
2017-12-27T08:19:32.339Z,28.27
2017-12-27T08:22:01.729Z,25.67
2017-12-27T08:24:30.946Z,22.13
2017-12-27T08:26:59.109Z,24.50
2017-12-27T08:29:26.990Z,24.70
2017-12-27T08:31:55.173Z,23.07
2017-12-27T08:34:23.846Z,22.90
2017-12-27T08:36:52.022Z,24.40
2017-12-27T08:39:20.248Z,25.97
2017-12-27T08:41:48.431Z,23.90
2017-12-27T08:44:17.548Z,21.43
2017-12-27T08:46:45.712Z,21.60
2017-12-27T08:49:13.676Z,22.10
2017-12-27T08:51:42.156Z,24.00
2017-12-27T08:54:10.316Z,20.47
2017-12-27T08:56:38.397Z,24.50
2017-12-27T08:59:06.288Z,22.33
2017-12-27T09:01:34.272Z,21.33
2017-12-27T09:04:03.122Z,22.80
2017-12-27T09:06:31.009Z,20.77
2017-12-27T09:08:58.874Z,22.80
2017-12-27T09:11:27.303Z,22.33
2017-12-27T09:13:56.359Z,19.67
2017-12-27T09:16:24.321Z,19.27
2017-12-27T09:18:52.167Z,21.37
2017-12-27T09:21:21.060Z,19.90
2017-12-27T09:23:48.996Z,19.97
2017-12-27T09:26:17.098Z,18.90
2017-12-27T09:28:45.125Z,19.43
2017-12-27T09:31:13.103Z,19.10
2017-12-27T09:33:43.424Z,17.73
2017-12-27T09:36:12.136Z,19.23
2017-12-27T09:38:40.044Z,19.07
2017-12-27T09:41:08.753Z,19.10
2017-12-27T09:43:36.666Z,18.67
2017-12-27T09:46:04.554Z,16.37
2017-12-27T09:48:32.571Z,16.60
2017-12-27T09:51:00.655Z,15.50
2017-12-27T09:53:28.547Z,16.20
2017-12-27T09:55:56.481Z,14.43
2017-12-27T09:58:24.329Z,12.80
2017-12-27T10:00:52.441Z,11.97
2017-12-27T10:03:20.653Z,12.63
2017-12-27T10:05:48.686Z,12.53
2017-12-27T10:08:16.633Z,10.83
2017-12-27T10:10:44.980Z,10.03
2017-12-27T10:13:12.895Z,10.53
2017-12-27T10:15:44.609Z,10.30
2017-12-27T10:18:13.150Z,11.53
2017-12-27T10:20:44.542Z,11.43
2017-12-27T10:23:16.156Z,12.97
2017-12-27T10:25:50.696Z,12.40
2017-12-27T10:28:33.360Z,12.90
2017-12-27T10:31:04.675Z,10.70
2017-12-27T10:33:34.132Z,14.00
2017-12-27T10:36:04.471Z,13.80
2017-12-27T10:38:33.319Z,14.10
2017-12-27T10:41:01.455Z,13.23
2017-12-27T10:43:35.288Z,13.33
2017-12-27T10:49:24.900Z,10.17
2017-12-27T10:51:52.912Z,10.97
2017-12-27T10:54:22.224Z,12.43
2017-12-27T10:56:50.339Z,9.83
2017-12-27T10:59:18.370Z,10.50
2017-12-27T11:16:38.958Z,1.70
2017-12-27T11:19:06.931Z,1.47
2017-12-27T11:21:34.758Z,1.77
2017-12-27T11:24:02.694Z,1.40
2017-12-27T11:26:31.233Z,2.40
2017-12-27T11:28:59.020Z,1.73
2017-12-27T11:31:26.820Z,1.77
2017-12-27T11:33:55.425Z,2.20
2017-12-27T11:36:23.282Z,2.10
2017-12-27T11:38:51.150Z,1.90
2017-12-27T11:41:18.956Z,1.70
2017-12-27T11:43:46.726Z,0.97
2017-12-27T11:46:14.514Z,0.77
2017-12-27T11:48:43.069Z,1.70
2017-12-27T11:51:10.846Z,5.97
2017-12-27T11:53:38.695Z,5.33
2017-12-27T11:56:06.564Z,5.83
2017-12-27T11:58:34.323Z,5.10
2017-12-27T12:01:02.181Z,4.80
2017-12-27T12:03:30.051Z,5.20
2017-12-27T12:05:57.832Z,5.53
2017-12-27T12:08:25.644Z,6.27
2017-12-27T12:10:53.554Z,5.13
2017-12-27T12:13:21.343Z,5.53
2017-12-27T12:15:49.186Z,4.50
2017-12-27T12:18:17.537Z,5.10
2017-12-27T12:20:46.597Z,4.17
2017-12-27T12:23:16.102Z,4.20
2017-12-27T12:25:44.797Z,5.00
2017-12-27T12:28:14.032Z,6.90
2017-12-27T12:30:41.925Z,7.87
2017-12-27T12:33:10.196Z,4.37
2017-12-27T12:35:37.988Z,4.30
2017-12-27T12:38:06.585Z,3.67
2017-12-27T12:40:35.146Z,5.00
2017-12-27T12:43:03.787Z,4.87
2017-12-27T12:45:32.239Z,4.47
2017-12-27T12:48:01.839Z,4.40
2017-12-27T12:50:29.620Z,4.33
2017-12-27T12:52:58.376Z,3.80
2017-12-27T12:55:27.895Z,2.77
2017-12-27T12:57:56.657Z,2.33
2017-12-27T13:00:24.470Z,2.93
2017-12-27T13:02:54.471Z,4.17
2017-12-27T13:05:23.726Z,2.67
2017-12-27T13:07:52.572Z,2.30
2017-12-27T13:10:20.904Z,2.80
2017-12-27T13:12:48.992Z,2.13
2017-12-27T13:15:17.869Z,2.80
2017-12-27T13:17:46.223Z,2.60
2017-12-27T13:20:14.397Z,3.10
2017-12-27T13:22:42.274Z,7.63
2017-12-27T13:25:10.150Z,11.30
2017-12-27T13:27:38.266Z,15.33
2017-12-27T13:30:06.291Z,20.37
2017-12-27T13:32:34.305Z,20.13
2017-12-27T13:35:02.355Z,23.23
2017-12-27T13:37:31.329Z,22.67
2017-12-27T13:40:00.238Z,24.60
2017-12-27T13:42:28.750Z,21.33
2017-12-27T13:44:56.594Z,22.60
2017-12-27T13:47:24.616Z,22.00
2017-12-27T13:49:52.608Z,22.70
2017-12-27T13:52:20.640Z,23.40
2017-12-27T13:54:48.498Z,23.50
2017-12-27T13:57:16.326Z,23.50
2017-12-27T13:59:51.467Z,22.43
2017-12-27T14:02:19.325Z,21.60
2017-12-27T14:04:47.961Z,19.80
2017-12-27T14:07:15.793Z,16.47
2017-12-27T14:09:43.556Z,15.00
2017-12-27T14:12:11.671Z,9.90
2017-12-27T14:14:39.463Z,6.50
2017-12-27T14:17:07.317Z,3.70
2017-12-27T14:19:35.510Z,3.40
2017-12-27T14:22:03.647Z,2.97
2017-12-27T14:24:31.761Z,4.77
2017-12-27T14:27:00.494Z,2.70
2017-12-27T14:29:28.270Z,2.53
2017-12-27T14:31:56.114Z,2.80
2017-12-27T14:34:24.016Z,2.10
2017-12-27T14:36:51.828Z,2.50
2017-12-27T14:39:19.656Z,2.40
2017-12-27T14:41:47.424Z,1.97
2017-12-27T14:44:15.305Z,2.50
2017-12-27T14:46:43.941Z,2.50
2017-12-27T14:49:11.799Z,1.83
2017-12-27T14:51:39.669Z,1.63
2017-12-27T14:54:07.536Z,2.00
2017-12-27T14:56:41.377Z,2.00
2017-12-27T14:59:09.301Z,2.03
2017-12-27T15:01:38.976Z,2.40
2017-12-27T15:04:08.084Z,2.63
2017-12-27T15:06:36.050Z,2.43
2017-12-27T15:09:03.876Z,2.77
2017-12-27T15:11:31.669Z,2.53
2017-12-27T15:14:00.422Z,1.80
2017-12-27T15:16:28.250Z,2.03
2017-12-27T15:18:56.096Z,1.80
2017-12-27T15:21:24.688Z,2.60
2017-12-27T15:23:52.447Z,1.70
2017-12-27T15:26:20.250Z,4.50
2017-12-27T15:28:48.064Z,4.17
2017-12-27T15:31:16.681Z,3.40
2017-12-27T15:33:44.625Z,2.60
2017-12-27T15:36:13.160Z,3.10
2017-12-27T15:38:41.034Z,3.53
2017-12-27T15:41:09.955Z,3.73
2017-12-27T15:43:38.067Z,11.73
2017-12-27T15:46:05.907Z,19.70
2017-12-27T15:48:34.556Z,9.87
2017-12-27T15:51:02.353Z,4.00
2017-12-27T15:53:31.684Z,3.73
2017-12-27T15:55:59.532Z,3.30
2017-12-27T15:58:27.370Z,3.37
2017-12-27T16:00:55.271Z,4.80
2017-12-27T16:03:23.087Z,3.30
2017-12-27T16:05:50.851Z,2.50
2017-12-27T16:08:18.800Z,2.13
2017-12-27T16:10:46.633Z,1.90
2017-12-27T16:13:14.420Z,1.50
2017-12-27T16:15:42.336Z,1.47
2017-12-27T16:18:10.951Z,1.90
2017-12-27T16:20:38.805Z,1.70
2017-12-27T16:23:06.647Z,1.73
2017-12-27T16:25:34.438Z,1.20
2017-12-27T16:28:02.190Z,2.03
2017-12-27T16:30:30.827Z,1.37
2017-12-27T16:32:58.621Z,1.77
2017-12-27T16:35:26.422Z,1.10
2017-12-27T16:37:54.344Z,1.47
2017-12-27T16:40:22.194Z,1.30
2017-12-27T16:42:49.976Z,1.20
2017-12-27T16:45:17.828Z,1.40
2017-12-27T16:47:45.587Z,1.23
2017-12-27T16:50:14.208Z,1.40
2017-12-27T16:52:42.785Z,1.43
2017-12-27T16:55:10.546Z,2.20
2017-12-27T16:57:38.304Z,1.60
2017-12-27T17:00:06.135Z,2.43
2017-12-27T17:02:33.996Z,1.40
2017-12-27T17:05:01.828Z,1.43
2017-12-27T17:07:30.434Z,1.67
2017-12-27T17:09:58.326Z,1.47
2017-12-27T17:12:26.070Z,1.57
2017-12-27T17:14:58.526Z,1.50
2017-12-27T17:17:26.481Z,1.60
2017-12-27T17:19:55.234Z,1.87
2017-12-27T17:22:23.140Z,1.80
2017-12-27T17:24:51.735Z,1.83
2017-12-27T17:27:19.498Z,1.50
2017-12-27T17:29:47.276Z,1.70
2017-12-27T17:32:15.093Z,2.03
2017-12-27T17:34:42.927Z,6.73
2017-12-27T17:37:10.699Z,2.83
2017-12-27T17:39:38.513Z,1.93
2017-12-27T17:42:07.107Z,2.27
2017-12-27T17:44:34.973Z,2.40
2017-12-27T17:47:02.850Z,1.60
2017-12-27T17:49:30.816Z,1.33
2017-12-27T17:51:58.687Z,1.80
2017-12-27T17:54:26.546Z,3.50
2017-12-27T17:56:54.449Z,4.80
2017-12-27T17:59:22.333Z,4.90
2017-12-27T18:01:50.079Z,2.83
2017-12-27T18:04:17.864Z,1.50
2017-12-27T18:06:45.620Z,1.43
2017-12-27T18:09:13.992Z,0.80
2017-12-27T18:11:41.818Z,0.80
2017-12-27T18:14:09.641Z,1.00
2017-12-27T18:16:37.478Z,1.20
2017-12-27T18:19:05.571Z,1.30
2017-12-27T18:21:33.593Z,1.40
2017-12-27T18:24:01.537Z,1.87
2017-12-27T18:26:29.414Z,1.47
2017-12-27T18:28:57.239Z,1.40
2017-12-27T18:31:25.207Z,1.70
2017-12-27T18:33:53.480Z,1.33
2017-12-27T18:36:21.353Z,0.90
2017-12-27T18:38:49.170Z,1.27
2017-12-27T18:41:17.093Z,1.10
2017-12-27T18:43:45.204Z,0.87
2017-12-27T18:46:13.480Z,0.70
2017-12-27T18:48:41.231Z,1.00
2017-12-27T18:51:09.824Z,0.97
2017-12-27T18:53:37.653Z,0.60
2017-12-27T18:56:06.346Z,0.77
2017-12-27T18:58:34.758Z,0.90
2017-12-27T19:01:03.933Z,0.90
2017-12-27T19:03:33.012Z,0.60
2017-12-27T19:06:01.329Z,0.60
2017-12-27T19:08:29.746Z,1.03
2017-12-27T19:10:58.361Z,0.63
2017-12-27T19:13:27.831Z,0.50
2017-12-27T19:15:56.261Z,0.40
2017-12-27T19:18:24.579Z,0.60
2017-12-27T19:20:53.176Z,0.60
2017-12-27T19:23:21.793Z,0.70
2017-12-27T19:25:51.253Z,2.77
2017-12-27T19:28:19.816Z,0.80
2017-12-27T19:30:48.660Z,0.57
2017-12-27T19:33:16.713Z,0.80
2017-12-27T19:35:46.008Z,0.87
2017-12-27T19:38:15.537Z,0.80
2017-12-27T19:40:45.602Z,1.43
2017-12-27T19:43:14.806Z,0.90
2017-12-27T19:45:43.632Z,0.53
2017-12-27T19:48:13.092Z,1.00
2017-12-27T19:50:41.859Z,0.80
2017-12-27T19:53:11.746Z,1.10
2017-12-27T19:55:40.481Z,0.67
2017-12-27T19:58:08.490Z,0.80
2017-12-27T20:00:37.545Z,0.80
2017-12-27T20:03:05.382Z,0.80
2017-12-27T20:05:34.655Z,0.67
2017-12-27T20:08:03.225Z,0.50
2017-12-27T20:10:31.729Z,0.50
2017-12-27T20:13:00.080Z,0.50
2017-12-27T20:15:29.721Z,0.40
2017-12-27T20:17:59.507Z,0.70
2017-12-27T20:20:27.545Z,0.90
2017-12-27T20:22:56.953Z,0.80
2017-12-27T20:25:24.945Z,0.70
2017-12-27T20:27:54.519Z,0.60
2017-12-27T20:30:22.867Z,0.50
2017-12-27T20:32:51.808Z,0.60
2017-12-27T20:35:20.924Z,1.77
2017-12-27T20:37:49.687Z,0.40
2017-12-27T20:40:18.725Z,0.63
2017-12-27T20:42:48.563Z,0.80
2017-12-27T20:45:17.457Z,0.60
2017-12-27T20:47:45.598Z,0.80
2017-12-27T20:50:13.912Z,0.97
2017-12-27T20:52:42.516Z,1.10
2017-12-27T20:55:10.497Z,0.77
2017-12-27T20:57:38.652Z,1.20
2017-12-27T21:00:08.004Z,0.67
2017-12-27T21:02:37.659Z,2.90
2017-12-27T21:05:08.121Z,4.03
2017-12-27T21:07:36.549Z,9.77
2017-12-27T21:10:05.688Z,19.00
2017-12-27T21:12:34.754Z,20.20
2017-12-27T21:15:03.358Z,22.53
2017-12-27T21:17:32.026Z,26.83
2017-12-27T21:19:59.991Z,23.73
2017-12-27T21:22:29.517Z,28.47
2017-12-27T21:24:57.960Z,27.70
2017-12-27T21:27:26.655Z,30.10
2017-12-27T21:29:54.566Z,31.03
2017-12-27T21:32:24.124Z,27.70
2017-12-27T21:34:54.246Z,30.10
2017-12-27T21:37:22.260Z,29.63
2017-12-27T21:39:51.085Z,26.10
2017-12-27T21:42:19.815Z,29.13
2017-12-27T21:44:47.565Z,27.63
2017-12-27T21:47:21.214Z,30.85
2017-12-27T21:50:04.686Z,32.27
2017-12-27T21:52:32.518Z,28.20
2017-12-27T21:55:01.037Z,21.50
2017-12-27T21:57:28.861Z,16.57
2017-12-27T22:00:02.377Z,17.37
2017-12-27T22:02:30.934Z,14.87
2017-12-27T22:04:58.778Z,17.60
2017-12-27T22:07:26.534Z,15.40
2017-12-27T22:09:54.362Z,13.60
2017-12-27T22:12:22.132Z,13.00
2017-12-27T22:14:50.049Z,12.20
2017-12-27T22:17:17.878Z,13.13
2017-12-27T22:19:45.671Z,11.97
2017-12-27T22:22:13.511Z,10.33
2017-12-27T22:24:41.307Z,11.00
2017-12-27T22:27:09.168Z,8.90
2017-12-27T22:29:37.111Z,10.00
2017-12-27T22:32:04.882Z,9.53
2017-12-27T22:34:32.691Z,8.20
2017-12-27T22:37:00.625Z,6.60
2017-12-27T22:39:28.456Z,8.00
2017-12-27T22:41:56.288Z,8.87
2017-12-27T22:44:24.220Z,8.83
2017-12-27T22:46:52.001Z,9.47
2017-12-27T22:49:19.801Z,10.30
2017-12-27T22:51:48.332Z,10.50
2017-12-27T22:54:16.135Z,10.70
2017-12-27T22:56:54.878Z,10.27
2017-12-27T22:59:22.782Z,9.33
2017-12-27T23:01:50.744Z,10.23
2017-12-27T23:04:18.795Z,13.10
2017-12-27T23:06:47.377Z,10.57
2017-12-27T23:09:15.356Z,11.23
2017-12-27T23:11:47.813Z,10.30
2017-12-27T23:14:16.627Z,10.83
2017-12-27T23:16:44.472Z,10.60
2017-12-27T23:19:12.389Z,9.37
2017-12-27T23:21:40.338Z,10.93
2017-12-27T23:24:08.270Z,9.70
2017-12-27T23:26:36.072Z,9.03
2017-12-27T23:29:04.637Z,10.37
2017-12-27T23:31:32.504Z,10.40
2017-12-27T23:34:00.393Z,10.07
2017-12-27T23:36:28.341Z,10.13
2017-12-27T23:38:56.166Z,10.23
2017-12-27T23:41:24.107Z,9.97
2017-12-27T23:43:52.801Z,10.87
2017-12-27T23:46:21.677Z,10.13
2017-12-27T23:48:49.572Z,10.10
2017-12-27T23:51:17.423Z,10.10
2017-12-27T23:53:45.241Z,9.97
2017-12-27T23:56:13.239Z,9.20
2017-12-27T23:58:41.165Z,10.10
